^^
Meteo Knjazevac Station Historical Data
Daily Summary for February 24, 2021 Units:  Metric    English   Both
Daily Weekly Monthly Yearly Custom
  High: Low: Average:
Temperature: 22.3 °C 18.5 °C 20.2 °C
Dew Point: 19.9 °C 17.7 °C 18.8 °C
Humidity: 95% 86% 92%
Wind Speed: 4.8km/h 0km/h 2.3km/h
Wind Gust: 12.9km/h - -
Wind- - West
Pressure: 1020.2 hPa 1019.9 hPa -
Precipitation: 0 mm    
Historical Graphs
 
 
Tabular Data for February 24, 2021
Time Temperature Dew Point Pressure Wind Wind Speed Wind Gust Humidity Rainfall Rate (Hourly) solar Conditions
00:00 22.3 °C 19.9 °C 1019.9 hPa WNW 3.2 km/h 4.8 km/h 86% 0 mm 0 W/m2
00:10 22.2 °C 19.7 °C 1019.9 hPa NW 3.2 km/h 4.8 km/h 86% 0 mm 0 W/m2
00:20 22 °C 19.9 °C 1019.9 hPa WSW 1.6 km/h 6.4 km/h 88% 0 mm 0 W/m2
00:30 21.9 °C 19.8 °C 1019.9 hPa Calm   4.8 km/h 88% 0 mm 0 W/m2
00:40 21.8 °C 19.8 °C 1019.9 hPa Calm   1.6 km/h 88% 0 mm 0 W/m2
00:50 21.5 °C 19.4 °C 1019.9 hPa WNW 1.6 km/h 4.8 km/h 88% 0 mm 0 W/m2
01:00 21.2 °C 19.3 °C 1019.9 hPa WNW 3.2 km/h 4.8 km/h 89% 0 mm 0 W/m2
01:10 20.9 °C 19.1 °C 1019.9 hPa SW 3.2 km/h 4.8 km/h 89% 0 mm 0 W/m2
01:20 20.6 °C 18.8 °C 1019.9 hPa West 4.8 km/h 12.9 km/h 90% 0 mm 0 W/m2
01:30 20.5 °C 19 °C 1020.2 hPa West 4.8 km/h 9.7 km/h 91% 0 mm 0 W/m2
01:40 20.4 °C 18.9 °C 1020.2 hPa Calm   6.4 km/h 91% 0 mm 0 W/m2
01:50 20.3 °C 18.8 °C 1020.2 hPa WNW 3.2 km/h 4.8 km/h 91% 0 mm 0 W/m2
02:00 20.3 °C 18.8 °C 1020.2 hPa Calm   3.2 km/h 91% 0 mm 0 W/m2
02:10 20.2 °C 18.7 °C 1020.2 hPa Calm   3.2 km/h 91% 0 mm 0 W/m2
02:20 20.1 °C 18.9 °C 1020.2 hPa North 1.6 km/h 3.2 km/h 93% 0 mm 0 W/m2
02:30 20 °C 18.5 °C 1020.2 hPa WNW 1.6 km/h 3.2 km/h 91% 0 mm 0 W/m2
02:40 19.9 °C 18.7 °C 1020.2 hPa NNW 3.2 km/h 4.8 km/h 93% 0 mm 0 W/m2
02:50 19.9 °C 18.7 °C 1020.2 hPa Calm   3.2 km/h 93% 0 mm 0 W/m2
03:00 19.6 °C 18.4 °C 1019.9 hPa WNW 1.6 km/h 6.4 km/h 93% 0 mm 0 W/m2
03:10 19.3 °C 18.2 °C 1019.9 hPa West 4.8 km/h 8 km/h 93% 0 mm 0 W/m2
03:20 19.1 °C 18.1 °C 1020.2 hPa WSW 3.2 km/h 8 km/h 94% 0 mm 0 W/m2
03:30 19 °C 18 °C 1019.9 hPa WSW 3.2 km/h 4.8 km/h 94% 0 mm 0 W/m2
03:40 18.8 °C 18 °C 1019.9 hPa Calm   6.4 km/h 95% 0 mm 0 W/m2
03:50 18.9 °C 18.1 °C 1020.2 hPa WNW 1.6 km/h 3.2 km/h 95% 0 mm 0 W/m2
04:00 18.9 °C 18.1 °C 1019.9 hPa North 1.6 km/h 4.8 km/h 95% 0 mm 0 W/m2
04:10 18.9 °C 18.1 °C 1019.9 hPa SE 3.2 km/h 4.8 km/h 95% 0 mm 0 W/m2
04:20 18.7 °C 17.9 °C 1019.9 hPa West 4.8 km/h 9.7 km/h 95% 0 mm 0 W/m2
04:30 18.5 °C 17.7 °C 1020.2 hPa West 4.8 km/h 9.7 km/h 95% 0 mm 0 W/m2
Knjazevac, Serbia
Compliments of Weather Underground - 2 mb